Time;durP1;ratioP1;P1;durP2;ratioP2;P2;SDS_P1;SDS_P2;PMS_P1;PMS_P2;Temp;Humidity;BMP_temperature;BMP_pressure;BME280_temperature;BME280_humidity;BME280_pressure;Samples;Min_cycle;Max_cycle;Signal;HPM_P1;HPM_P2
2021/09/10 00:00:55;;;;;;;4.60;2.30;;;;;;;19.11;40.72;98888.02;112314;1195;75077;-83
2021/09/10 00:04:24;;;;;;;4.80;2.20;;;;;;;19.10;40.69;98885.59;112224;1187;62666;-85
2021/09/10 00:07:43;;;;;;;6.40;2.20;;;;;;;19.05;40.71;98886.36;112323;1193;62506;-85
2021/09/10 00:10:31;;;;;;;7.50;2.50;;;;;;;19.02;40.76;98889.36;112416;1194;74700;-84
2021/09/10 00:14:10;;;;;;;;;;;;;;;;;;;;;
2021/09/10 00:17:33;;;;;;;7.10;2.60;;;;;;;19.04;40.80;98887.71;112280;1195;72475;-86
2021/09/10 00:20:57;;;;;;;;;;;;;;;;;;;;;
2021/09/10 00:24:13;;;;;;;3.20;1.90;;;;;;;18.99;40.68;98886.32;112393;1196;62652;-83
2021/09/10 00:27:10;;;;;;;3.90;2.30;;;;;;;18.94;40.77;98888.20;112319;1195;76771;-84
2021/09/10 00:30:22;;;;;;;3.00;2.00;;;;;;;18.91;40.92;98888.04;112242;1190;67647;-82
2021/09/10 00:33:25;;;;;;;5.80;2.30;;;;;;;18.88;40.77;98889.58;112856;1192;72803;-88
2021/09/10 00:36:56;;;;;;;5.20;2.40;;;;;;;18.85;40.87;98885.13;112700;1190;62690;-83
2021/09/10 00:40:13;;;;;;;;;;;;;;;;;;;;;
2021/09/10 00:43:56;;;;;;;6.10;2.20;;;;;;;18.76;40.89;98889.32;112554;1190;74510;-85
2021/09/10 00:47:04;;;;;;;;;;;;;;;;;;;;;
2021/09/10 00:50:26;;;;;;;4.70;2.30;;;;;;;18.72;41.05;98888.89;112249;1195;71413;-84
2021/09/10 00:53:45;;;;;;;4.60;2.60;;;;;;;18.71;41.06;98890.11;112091;1195;63307;-83
2021/09/10 00:57:18;;;;;;;;;;;;;;;;;;;;;
2021/09/10 01:01:06;;;;;;;8.40;2.70;;;;;;;18.64;41.19;98890.58;111777;1198;76289;-86
2021/09/10 01:03:52;;;;;;;;;;;;;;;18.64;41.11;98891.45;111943;1200;67841;-88
2021/09/10 01:10:22;;;;;;;3.30;2.10;;;;;;;18.63;41.05;98886.87;111623;1196;62913;-85
2021/09/10 01:13:17;;;;;;;3.00;2.30;;;;;;;18.59;41.15;98889.78;111423;1203;62693;-84
2021/09/10 01:16:26;;;;;;;6.80;2.40;;;;;;;18.56;41.25;98891.45;111567;1203;74921;-85
2021/09/10 01:19:45;;;;;;;3.00;2.30;;;;;;;18.51;41.26;98890.70;111432;1201;66424;-85
2021/09/10 01:27:09;;;;;;;5.30;2.80;;;;;;;18.39;41.36;98893.42;111771;1198;62739;-85
2021/09/10 01:30:10;;;;;;;;;;;;;;;;;;;;;
2021/09/10 01:33:24;;;;;;;;;;;;;;;;;;;;;
2021/09/10 01:36:16;;;;;;;;;;;;;;;;;;;;;
2021/09/10 01:39:52;;;;;;;;;;;;;;;;;;;;;
2021/09/10 01:43:21;;;;;;;;;;;;;;;;;;;;;
2021/09/10 01:47:00;;;;;;;4.60;2.50;;;;;;;18.26;41.70;98890.55;111602;1201;62800;-84
2021/09/10 01:50:36;;;;;;;6.00;2.60;;;;;;;18.23;41.69;98884.56;111609;1200;75682;-84
2021/09/10 01:53:25;;;;;;;3.90;2.40;;;;;;;18.24;41.78;98886.96;111867;1200;67700;-85
2021/09/10 01:56:38;;;;;;;;;;;;;;;;;;;;;
2021/09/10 02:03:14;;;;;;;4.50;2.20;;;;;;;18.14;41.81;98881.52;111854;1199;62610;-84
2021/09/10 02:06:19;;;;;;;3.60;2.50;;;;;;;18.10;41.88;98882.72;111677;1200;76268;-83
2021/09/10 02:09:27;;;;;;;4.70;2.70;;;;;;;18.06;41.99;98878.61;111577;1200;66501;-84
2021/09/10 02:12:31;;;;;;;4.50;2.10;;;;;;;18.04;42.02;98883.48;111616;1200;72625;-87
2021/09/10 02:15:57;;;;;;;4.80;2.30;;;;;;;18.06;41.97;98883.98;111661;1200;62719;-84
2021/09/10 02:22:46;;;;;;;5.70;2.20;;;;;;;18.09;42.03;98880.17;111478;1203;76686;-85
2021/09/10 02:29:37;;;;;;;;;;;;;;;;;;;;;
2021/09/10 02:33:16;;;;;;;4.80;2.70;;;;;;;18.01;42.12;98878.58;111490;1200;62680;-83
2021/09/10 02:35:55;;;;;;;8.40;2.40;;;;;;;18.02;42.09;98877.36;111576;1200;62530;-84
2021/09/10 02:39:05;;;;;;;5.50;2.20;;;;;;;18.01;42.17;98871.51;111701;1200;76150;-85
2021/09/10 02:42:44;;;;;;;;;;;;;;;;;;;;;
2021/09/10 02:45:51;;;;;;;7.20;2.10;;;;;;;17.94;42.21;98864.61;111224;1206;72885;-86
2021/09/10 02:49:14;;;;;;;5.50;2.40;;;;;;;17.93;42.25;98860.45;111149;1206;62662;-85
2021/09/10 02:52:27;;;;;;;3.80;2.20;;;;;;;17.99;42.22;98860.07;111133;1200;62831;-87
2021/09/10 02:55:15;;;;;;;5.20;2.80;;;;;;;18.01;42.29;98855.49;111250;1206;76257;-85
2021/09/10 02:58:14;;;;;;;3.60;2.30;;;;;;;18.06;42.27;98859.80;111082;1203;69169;-87
2021/09/10 03:01:19;;;;;;;;;;;;;;;;;;;;;
2021/09/10 03:04:23;;;;;;;2.80;2.00;;;;;;;18.09;42.28;98862.89;111500;1202;62612;-86
2021/09/10 03:07:51;;;;;;;7.90;2.20;;;;;;;18.11;42.31;98866.17;111840;1197;60763;-87
2021/09/10 03:11:09;;;;;;;3.80;2.40;;;;;;;18.15;42.37;98868.42;111739;1191;76302;-84
2021/09/10 03:14:33;;;;;;;;;;;;;;;;;;;;;
2021/09/10 03:17:37;;;;;;;7.00;2.30;;;;;;;18.14;42.35;98872.23;111528;1201;73857;-84
2021/09/10 03:21:07;;;;;;;;;;;;;;;;;;;;;
2021/09/10 03:24:53;;;;;;;4.90;2.50;;;;;;;18.07;42.48;98863.92;112299;1193;60679;-85
2021/09/10 03:27:58;;;;;;;3.80;2.00;;;;;;;18.03;42.48;98859.98;111746;1198;76633;-85
2021/09/10 03:31:16;;;;;;;6.80;2.50;;;;;;;18.01;42.54;98858.44;111705;1198;67697;-84
2021/09/10 03:34:28;;;;;;;7.90;2.50;;;;;;;18.01;42.62;98856.55;111788;1198;72506;-85
2021/09/10 03:40:30;;;;;;;;;;;;;;;;;;;;;
2021/09/10 03:43:39;;;;;;;6.80;2.80;;;;;;;18.00;42.76;98854.20;111695;1198;78231;-89
2021/09/10 03:47:21;;;;;;;3.40;2.40;;;;;;;17.98;42.75;98854.27;111788;1183;67601;-84
2021/09/10 03:50:52;;;;;;;9.20;2.30;;;;;;;17.94;42.90;98852.13;111928;1195;72408;-83
2021/09/10 03:54:10;;;;;;;2.80;2.00;;;;;;;17.93;42.83;98857.79;112215;1195;62778;-87
2021/09/10 03:57:06;;;;;;;4.20;2.40;;;;;;;17.93;42.82;98855.66;111957;1196;62574;-84
2021/09/10 04:03:31;;;;;;;8.30;2.60;;;;;;;17.89;42.98;98849.03;112117;1196;68051;-85
2021/09/10 04:07:03;;;;;;;5.10;2.30;;;;;;;17.87;43.08;98851.44;112702;1189;73790;-87
2021/09/10 04:10:16;;;;;;;8.60;2.80;;;;;;;17.82;42.99;98847.85;112729;1190;62613;-84
2021/09/10 04:16:33;;;;;;;12.90;2.90;;;;;;;17.76;43.19;98841.78;112248;1195;76341;-85
2021/09/10 04:23:00;;;;;;;8.20;2.80;;;;;;;17.70;43.21;98845.09;112302;1195;71548;-85
2021/09/10 04:26:23;;;;;;;10.20;2.80;;;;;;;17.70;43.25;98845.64;112235;1195;62680;-87
2021/09/10 04:33:26;;;;;;;;;;;;;;;;;;;;;
2021/09/10 04:36:38;;;;;;;;;;;;;;;;;;;;;
2021/09/10 04:39:57;;;;;;;11.00;2.50;;;;;;;17.72;43.49;98852.30;112391;1195;71339;-85
2021/09/10 04:43:11;;;;;;;;;;;;;;;;;;;;;
2021/09/10 04:46:37;;;;;;;7.20;3.10;;;;;;;17.73;43.51;98854.74;111754;1198;63142;-85
2021/09/10 04:49:31;;;;;;;7.40;2.40;;;;;;;17.72;43.64;98856.30;111761;1199;76095;-83
2021/09/10 04:52:43;;;;;;;9.90;3.00;;;;;;;17.71;43.71;98856.36;111788;1196;66350;-81
2021/09/10 04:55:43;;;;;;;4.70;2.80;;;;;;;17.71;43.78;98857.67;112072;1195;72586;-86
2021/09/10 04:58:26;;;;;;;;;;;;;;;;;;;;;
2021/09/10 05:01:43;;;;;;;11.10;3.00;;;;;;;17.74;43.87;98857.15;112112;1195;62838;-81
2021/09/10 05:04:27;;;;;;;6.70;2.90;;;;;;;17.78;43.97;98857.29;112047;1195;76056;-84
2021/09/10 05:07:33;;;;;;;11.30;3.30;;;;;;;17.82;44.01;98857.34;112156;1195;67897;-84
2021/09/10 05:11:05;;;;;;;5.70;3.40;;;;;;;17.90;43.92;98865.73;111963;1195;71175;-82
2021/09/10 05:14:15;;;;;;;8.30;3.90;;;;;;;17.97;44.02;98868.18;112123;1196;62654;-84
2021/09/10 05:17:10;;;;;;;8.70;3.90;;;;;;;18.06;44.10;98868.88;112294;1195;62621;-83
2021/09/10 05:19:44;;;;;;;12.40;4.20;;;;;;;18.12;44.11;98870.23;111971;1197;74601;-82
2021/09/10 05:22:54;;;;;;;18.30;4.70;;;;;;;18.19;44.10;98875.29;112248;1193;67595;-89
2021/09/10 05:25:37;;;;;;;10.70;3.90;;;;;;;18.27;44.17;98872.41;112773;1190;71082;-84
2021/09/10 05:28:15;;;;;;;13.60;5.60;;;;;;;18.36;44.15;98877.01;112681;1190;62744;-82
2021/09/10 05:31:10;;;;;;;13.40;6.10;;;;;;;18.45;44.18;98874.60;112665;1190;62704;-90
2021/09/10 05:33:54;;;;;;;16.10;5.90;;;;;;;18.53;44.16;98874.99;112873;1190;75439;-81
2021/09/10 05:37:12;;;;;;;13.60;5.60;;;;;;;18.62;44.17;98873.50;112694;1190;67728;-85
2021/09/10 05:40:13;;;;;;;10.00;4.30;;;;;;;18.71;44.31;98871.11;112781;1190;74454;-82
2021/09/10 05:43:17;;;;;;;17.70;4.50;;;;;;;18.79;44.22;98867.70;112666;1190;62568;-87
2021/09/10 05:46:35;;;;;;;5.80;2.90;;;;;;;18.86;44.20;98869.23;112684;1192;62735;-82
2021/09/10 05:49:16;;;;;;;32.20;4.10;;;;;;;18.97;44.27;98869.16;112628;1190;74696;-82
2021/09/10 05:52:20;;;;;;;9.60;3.40;;;;;;;19.05;44.30;98870.21;112447;1190;67892;-82
2021/09/10 05:54:47;;;;;;;17.50;4.10;;;;;;;19.16;44.33;98870.59;112706;1191;71396;-82
2021/09/10 05:57:34;;;;;;;;;;;;;;;;;;;;;
2021/09/10 06:00:29;;;;;;;;;;;;;;;;;;;;;
2021/09/10 06:03:33;;;;;;;9.80;3.40;;;;;;;19.44;44.25;98881.73;112504;1192;77648;-84
2021/09/10 06:06:34;;;;;;;7.40;3.30;;;;;;;19.55;44.31;98883.41;112633;1192;66615;-83
2021/09/10 06:09:25;;;;;;;;;;;;;;;;;;;;;
2021/09/10 06:12:28;;;;;;;;;;;;;;;;;;;;;
2021/09/10 06:15:11;;;;;;;13.10;3.50;;;;;;;19.85;44.34;98887.09;112569;1193;62724;-83
2021/09/10 06:17:58;;;;;;;9.50;3.90;;;;;;;19.95;44.32;98888.83;112703;1193;76634;-83
2021/09/10 06:20:36;;;;;;;;;;;;;;;20.04;44.50;98885.52;112690;1190;67171;-82
2021/09/10 06:23:48;;;;;;;7.60;3.80;;;;;;;20.13;44.47;98885.91;112612;1190;72550;-86
2021/09/10 06:26:43;;;;;;;;;;;;;;;20.22;44.32;98886.80;112685;1190;62560;-82
2021/09/10 06:29:23;;;;;;;9.60;3.60;;;;;;;20.32;44.27;98887.90;112687;1190;62579;-83
2021/09/10 06:32:12;;;;;;;;;;;;;;;;;;;;;
2021/09/10 06:34:47;;;;;;;14.80;3.20;;;;;;;20.51;44.36;98889.70;112510;1193;66815;-83
2021/09/10 06:37:19;;;;;;;6.50;3.20;;;;;;;20.61;44.40;98891.54;112585;1191;72483;-83
2021/09/10 06:40:00;;;;;;;7.10;3.20;;;;;;;20.72;44.54;98890.97;112443;1192;62671;-86
2021/09/10 06:42:41;;;;;;;;;;;;;;;;;;;;;
2021/09/10 06:45:17;;;;;;;11.70;3.10;;;;;;;20.92;44.31;98888.83;112745;1190;77476;-83
2021/09/10 06:47:48;;;;;;;26.00;3.60;;;;;;;21.03;44.35;98889.95;113321;1190;67556;-82
2021/09/10 06:50:38;;;;;;;12.40;3.00;;;;;;;21.12;44.30;98893.16;112532;1193;72842;-82
2021/09/10 06:53:12;;;;;;;8.70;2.80;;;;;;;21.25;44.25;98892.48;113194;1192;62567;-82
2021/09/10 06:56:09;;;;;;;;;;;;;;;;;;;;;
2021/09/10 06:58:42;;;;;;;10.40;3.10;;;;;;;21.56;44.13;98891.92;112655;1193;76180;-84
2021/09/10 07:01:16;;;;;;;8.60;3.20;;;;;;;21.71;44.24;98891.70;112522;1193;69499;-84
2021/09/10 07:04:24;;;;;;;;;;;;;;;;;;;;;
2021/09/10 07:07:01;;;;;;;5.00;2.90;;;;;;;22.07;44.15;98894.61;113071;1193;62716;-82
2021/09/10 07:10:06;;;;;;;7.70;2.80;;;;;;;22.21;44.12;98893.20;112909;1192;62674;-83
2021/09/10 07:12:35;;;;;;;6.70;2.50;;;;;;;22.38;44.04;98895.51;112798;1190;76348;-81
2021/09/10 07:15:11;;;;;;;6.10;2.50;;;;;;;22.51;43.92;98894.55;112943;1193;66551;-82
2021/09/10 07:17:46;;;;;;;15.00;2.60;;;;;;;22.65;43.83;98896.84;113027;1190;63974;-82
2021/09/10 07:20:13;;;;;;;7.00;2.60;;;;;;;22.78;43.63;98895.27;112574;1192;62649;-84
2021/09/10 07:22:56;;;;;;;5.40;2.70;;;;;;;22.92;43.80;98890.80;112737;1190;62962;-82
2021/09/10 07:26:02;;;;;;;12.50;3.00;;;;;;;23.11;43.88;98897.03;112698;1193;76264;-82
2021/09/10 07:28:46;;;;;;;10.80;3.40;;;;;;;23.28;43.58;98900.84;113249;1190;62636;-83
2021/09/10 07:31:39;;;;;;;4.00;2.30;;;;;;;23.45;43.72;98900.90;112825;1192;63806;-84
2021/09/10 07:34:12;;;;;;;8.50;2.90;;;;;;;23.67;43.63;98900.59;112791;1191;62623;-88
2021/09/10 07:37:02;;;;;;;7.00;2.70;;;;;;;23.80;43.37;98902.17;112640;1190;62707;-87
2021/09/10 07:40:03;;;;;;;4.80;2.40;;;;;;;23.87;43.24;98900.67;113020;1190;69335;-86
2021/09/10 07:42:39;;;;;;;8.20;2.80;;;;;;;23.93;43.32;98899.98;113298;1190;62578;-82
2021/09/10 07:45:28;;;;;;;11.30;2.80;;;;;;;24.01;43.39;98901.09;112960;1193;63807;-83
2021/09/10 07:48:12;;;;;;;8.90;2.70;;;;;;;24.13;43.46;98901.92;113023;1190;62633;-83
2021/09/10 07:50:57;;;;;;;7.60;2.80;;;;;;;24.26;43.29;98905.25;112692;1190;62722;-82
2021/09/10 07:53:32;;;;;;;;;;;;;;;24.35;42.99;98904.27;112940;1190;66564;-82
2021/09/10 07:56:04;;;;;;;7.10;3.30;;;;;;;24.37;42.95;98905.40;112861;1190;62553;-83
2021/09/10 07:58:44;;;;;;;;;;;;;;;;;;;;;
2021/09/10 08:01:27;;;;;;;8.00;2.80;;;;;;;24.52;42.91;98908.48;112632;1191;62630;-84
2021/09/10 08:04:01;;;;;;;6.60;2.60;;;;;;;24.60;42.98;98911.20;112872;1193;62515;-82
2021/09/10 08:08:06;;;;;;;10.20;3.00;;;;;;;24.68;42.83;98913.42;112760;1190;67370;-82
2021/09/10 08:10:33;;;;;;;6.50;3.20;;;;;;;24.71;42.57;98914.89;113039;1190;62668;-83
2021/09/10 08:13:45;;;;;;;8.20;3.50;;;;;;;24.74;42.65;98913.10;113197;1190;62774;-84
2021/09/10 08:16:50;;;;;;;;;;;;;;;;;;;;;
2021/09/10 08:19:31;;;;;;;7.60;2.90;;;;;;;24.95;42.77;98920.27;112620;1191;63489;-84
2021/09/10 08:22:27;;;;;;;8.10;2.60;;;;;;;25.04;42.46;98922.15;113034;1190;66265;-84
2021/09/10 08:25:10;;;;;;;6.70;3.10;;;;;;;25.12;42.39;98917.84;112831;1195;62569;-84
2021/09/10 08:28:29;;;;;;;4.90;2.70;;;;;;;25.23;42.48;98922.67;112636;1192;64254;-85
2021/09/10 08:31:19;;;;;;;4.40;2.30;;;;;;;25.37;42.46;98927.43;112589;1193;62632;-84
2021/09/10 08:34:37;;;;;;;;;;;;;;;;;;;;;
2021/09/10 08:37:32;;;;;;;12.00;2.90;;;;;;;25.55;42.06;98931.81;112662;1192;66228;-82
2021/09/10 08:40:22;;;;;;;8.20;3.00;;;;;;;25.53;42.10;98934.05;112539;1192;62806;-83
2021/09/10 08:43:16;;;;;;;;;;;;;;;;;;;;;
2021/09/10 08:46:27;;;;;;;6.30;2.70;;;;;;;25.62;42.14;98943.27;112978;1192;62514;-83
2021/09/10 08:50:06;;;;;;;5.40;2.70;;;;;;;25.75;42.12;98943.58;112980;1192;62608;-84
2021/09/10 08:53:01;;;;;;;6.60;2.90;;;;;;;25.86;42.10;98946.15;112296;1195;67437;-85
2021/09/10 08:56:59;;;;;;;;;;;;;;;;;;;;;
2021/09/10 09:00:09;;;;;;;17.60;3.50;;;;;;;26.09;41.59;98942.05;111715;1200;62782;-85
2021/09/10 09:03:55;;;;;;;10.00;2.90;;;;;;;26.04;41.56;98947.27;111505;1206;62601;-83
2021/09/10 09:06:38;;;;;;;9.20;2.80;;;;;;;26.18;41.64;98941.98;111077;1206;62675;-86
2021/09/10 09:09:50;;;;;;;10.20;3.00;;;;;;;26.33;41.65;98942.16;111222;1206;65975;-85
2021/09/10 09:12:47;;;;;;;11.90;2.60;;;;;;;26.47;41.46;98942.81;111284;1206;62865;-84
2021/09/10 09:16:41;;;;;;;9.70;2.50;;;;;;;26.51;41.14;98948.78;111640;1206;62684;-85
2021/09/10 09:20:20;;;;;;;15.20;3.40;;;;;;;26.54;41.02;98944.95;111108;1209;62711;-84
2021/09/10 09:24:16;;;;;;;;;;;;;;;;;;;;;
2021/09/10 09:31:00;;;;;;;8.40;3.10;;;;;;;26.96;40.77;98936.74;110936;1207;62687;-86
2021/09/10 09:33:48;;;;;;;9.40;2.80;;;;;;;27.04;40.86;98936.38;111096;1206;62991;-85
2021/09/10 09:37:05;;;;;;;8.10;2.50;;;;;;;27.15;41.07;98934.44;112895;1203;62513;-83
2021/09/10 09:40:17;;;;;;;7.80;3.30;;;;;;;27.33;41.35;98929.09;112135;1200;62805;-84
2021/09/10 09:43:41;;;;;;;3.90;2.90;;;;;;;27.54;41.18;98928.54;111853;1197;68834;-86
2021/09/10 09:46:32;;;;;;;7.70;2.50;;;;;;;27.72;40.95;98927.63;112015;1196;62996;-89
2021/09/10 09:49:51;;;;;;;7.60;2.60;;;;;;;27.86;40.80;98927.42;112237;1194;65248;-85
2021/09/10 09:52:25;;;;;;;18.90;3.30;;;;;;;27.95;40.41;98927.39;112068;1195;62614;-85
2021/09/10 09:55:33;;;;;;;6.20;2.60;;;;;;;27.95;40.18;98928.98;112494;1194;62749;-87
2021/09/10 09:58:34;;;;;;;6.00;2.50;;;;;;;27.93;40.15;98926.39;112553;1190;66295;-85
2021/09/10 10:01:22;;;;;;;10.30;3.40;;;;;;;27.98;40.21;98932.33;112647;1192;67794;-85
2021/09/10 10:04:26;;;;;;;7.10;2.80;;;;;;;28.09;40.23;98929.98;112486;1190;62597;-87
2021/09/10 10:07:02;;;;;;;3.80;2.40;;;;;;;28.26;39.88;98936.14;112663;1190;62884;-85
2021/09/10 10:09:48;;;;;;;7.20;2.40;;;;;;;28.32;39.81;98936.95;112544;1190;62592;-87
2021/09/10 10:12:43;;;;;;;;;;;;;;;;;;;;;
2021/09/10 10:15:57;;;;;;;12.30;2.70;;;;;;;28.56;39.55;98940.02;113032;1190;62604;-87
2021/09/10 10:19:08;;;;;;;13.50;2.80;;;;;;;28.64;39.41;98940.61;112856;1192;72295;-87
2021/09/10 10:22:21;;;;;;;;;;;;;;;;;;;;;
2021/09/10 10:25:20;;;;;;;4.30;2.10;;;;;;;28.63;39.28;98938.77;112667;1191;62530;-84
2021/09/10 10:28:32;;;;;;;9.10;3.20;;;;;;;28.69;39.15;98938.52;112475;1193;68030;-85
2021/09/10 10:31:51;;;;;;;7.50;2.60;;;;;;;28.73;38.88;98937.14;113801;1190;62648;-85
2021/09/10 10:34:35;;;;;;;11.40;2.60;;;;;;;28.73;38.85;98940.07;113233;1190;62636;-85
2021/09/10 10:38:00;;;;;;;8.20;3.10;;;;;;;28.71;38.74;98938.52;112621;1192;62543;-86
2021/09/10 10:40:53;;;;;;;7.40;2.90;;;;;;;28.85;38.84;98938.65;111888;1196;62610;-85
2021/09/10 10:43:37;;;;;;;11.90;3.40;;;;;;;28.95;38.60;98937.21;112108;1196;67492;-85
2021/09/10 10:46:50;;;;;;;6.10;2.50;;;;;;;28.96;38.55;98934.98;111840;1200;62660;-84
2021/09/10 10:50:20;;;;;;;6.00;2.40;;;;;;;28.99;38.45;98932.48;112626;1197;62949;-86
2021/09/10 10:53:25;;;;;;;9.30;2.60;;;;;;;29.05;38.53;98927.95;111696;1198;62811;-86
2021/09/10 10:56:32;;;;;;;5.30;2.60;;;;;;;29.06;38.23;98929.88;112005;1200;62780;-84
2021/09/10 11:00:17;;;;;;;7.10;2.70;;;;;;;29.06;38.19;98936.14;111643;1199;67666;-88
2021/09/10 11:03:04;;;;;;;4.10;2.20;;;;;;;29.03;38.17;98934.02;111867;1200;62648;-86
2021/09/10 11:06:29;;;;;;;5.00;2.60;;;;;;;29.07;38.28;98933.81;111617;1200;64048;-85
2021/09/10 11:09:16;;;;;;;7.60;2.70;;;;;;;29.07;37.99;98931.95;111947;1200;62751;-87
2021/09/10 11:11:54;;;;;;;12.40;2.60;;;;;;;29.08;38.02;98930.21;111725;1200;63059;-86
2021/09/10 11:14:49;;;;;;;;;;;;;;;;;;;;;
2021/09/10 11:17:39;;;;;;;11.30;3.30;;;;;;;29.08;37.81;98931.73;112202;1197;62665;-85
2021/09/10 11:20:55;;;;;;;4.70;3.30;;;;;;;29.07;37.69;98927.20;112454;1196;63781;-86
2021/09/10 11:31:43;;;;;;;6.00;2.80;;;;;;;29.07;37.60;98925.60;112740;1193;68643;-86
2021/09/10 11:35:14;;;;;;;4.20;2.70;;;;;;;29.09;37.55;98922.80;112814;1190;62998;-84
2021/09/10 11:38:24;;;;;;;7.20;2.60;;;;;;;29.13;37.66;98921.70;112646;1190;63807;-86
2021/09/10 11:41:17;;;;;;;4.20;2.70;;;;;;;29.22;37.67;98921.02;113087;1190;62528;-87
2021/09/10 11:44:07;;;;;;;5.60;3.00;;;;;;;29.30;37.61;98919.79;112972;1190;62632;-85
2021/09/10 11:46:57;;;;;;;4.70;2.70;;;;;;;29.32;37.42;98919.13;113081;1190;66210;-84
2021/09/10 11:50:22;;;;;;;6.10;2.30;;;;;;;29.35;37.43;98917.99;113046;1190;62589;-85
2021/09/10 11:53:28;;;;;;;;;;;;;;;;;;;;;
2021/09/10 11:56:56;;;;;;;7.50;3.20;;;;;;;29.42;37.47;98907.86;112884;1190;62537;-85
2021/09/10 11:59:58;;;;;;;8.90;3.10;;;;;;;29.43;37.40;98906.70;112934;1190;62534;-86
2021/09/10 12:02:37;;;;;;;4.60;2.60;;;;;;;29.49;37.46;98908.05;113114;1190;66402;-87
2021/09/10 12:05:23;;;;;;;18.00;3.90;;;;;;;29.52;37.35;98902.56;112754;1191;62652;-88
2021/09/10 12:08:31;;;;;;;6.30;3.60;;;;;;;29.51;37.16;98904.54;113057;1193;63984;-87
2021/09/10 12:12:03;;;;;;;;;;;;;;;;;;;;;
2021/09/10 12:15:16;;;;;;;;;;;;;;;;;;;;;
2021/09/10 12:18:18;;;;;;;6.20;3.10;;;;;;;29.50;37.25;98903.46;113857;1190;67299;-84
2021/09/10 12:21:22;;;;;;;3.00;2.70;;;;;;;29.55;37.32;98900.27;113237;1193;62588;-88
2021/09/10 12:24:13;;;;;;;9.70;3.10;;;;;;;29.55;37.00;98897.56;112385;1193;64039;-87
2021/09/10 12:27:30;;;;;;;5.10;2.80;;;;;;;29.49;36.97;98897.77;112781;1193;62528;-88
2021/09/10 12:30:36;;;;;;;7.10;2.80;;;;;;;29.36;36.71;98896.02;112571;1193;62706;-86
2021/09/10 12:36:56;;;;;;;6.50;2.30;;;;;;;29.15;36.76;98892.38;112678;1190;70503;-88
2021/09/10 12:40:45;;;;;;;7.70;2.60;;;;;;;29.12;36.63;98890.76;112613;1190;64379;-86
2021/09/10 12:43:26;;;;;;;5.50;2.70;;;;;;;28.97;36.37;98888.98;112611;1192;62669;-87
2021/09/10 12:46:06;;;;;;;10.20;3.20;;;;;;;28.89;36.48;98889.16;112827;1190;62700;-86
2021/09/10 12:49:18;;;;;;;7.10;3.40;;;;;;;28.89;36.65;98889.00;113219;1190;66540;-86
2021/09/10 12:52:14;;;;;;;5.40;3.00;;;;;;;28.86;36.45;98888.58;112931;1190;62537;-86
2021/09/10 12:55:06;;;;;;;11.80;2.90;;;;;;;28.79;36.55;98885.33;112773;1190;70734;-86
2021/09/10 12:57:56;;;;;;;;;;;;;;;;;;;;;
2021/09/10 13:01:00;;;;;;;4.50;2.50;;;;;;;28.68;36.41;98886.33;112556;1190;63062;-88
2021/09/10 13:03:47;;;;;;;5.60;2.50;;;;;;;28.60;36.28;98886.77;112721;1190;66249;-87
2021/09/10 13:06:46;;;;;;;;;;;;;;;;;;;;;
2021/09/10 13:09:39;;;;;;;4.90;3.30;;;;;;;28.44;36.14;98874.39;112736;1190;64085;-85
2021/09/10 13:12:28;;;;;;;4.70;3.40;;;;;;;28.38;36.13;98869.80;112648;1192;62667;-86
2021/09/10 13:15:20;;;;;;;8.60;3.40;;;;;;;28.33;36.19;98868.33;112871;1193;62620;-84
2021/09/10 13:18:22;;;;;;;;;;;;;;;;;;;;;
2021/09/10 13:21:03;;;;;;;4.70;3.10;;;;;;;28.26;36.01;98865.04;112599;1190;62614;-87
2021/09/10 13:23:44;;;;;;;12.30;3.00;;;;;;;28.22;35.94;98862.89;112611;1192;64421;-87
2021/09/10 13:26:37;;;;;;;5.90;2.60;;;;;;;28.17;35.87;98865.60;112676;1193;62668;-87
2021/09/10 13:29:44;;;;;;;8.60;3.00;;;;;;;28.11;36.05;98858.76;112544;1190;63107;-86
2021/09/10 13:32:49;;;;;;;;;;;;;;;;;;;;;
2021/09/10 13:35:34;;;;;;;11.80;5.90;;;;;;;28.05;36.30;98858.35;112762;1193;62636;-87
2021/09/10 13:38:24;;;;;;;13.30;4.60;;;;;;;28.05;36.22;98857.05;112619;1190;62706;-86
2021/09/10 13:41:01;;;;;;;7.80;5.10;;;;;;;28.01;36.21;98855.28;112778;1190;62711;-87
2021/09/10 13:44:10;;;;;;;8.70;5.80;;;;;;;27.97;36.11;98854.89;112710;1187;62738;-88
2021/09/10 13:46:46;;;;;;;9.60;3.60;;;;;;;27.93;36.17;98859.80;112724;1190;66322;-88
2021/09/10 13:49:39;;;;;;;;;;;;;;;;;;;;;
2021/09/10 13:52:56;;;;;;;;;;;;;;;;;;;;;
2021/09/10 13:56:06;;;;;;;9.60;3.70;;;;;;;27.75;36.34;98850.33;112960;1190;62575;-86
2021/09/10 13:59:34;;;;;;;4.90;3.40;;;;;;;27.72;36.14;98846.67;112558;1190;62720;-86
2021/09/10 14:02:37;;;;;;;;;;;;;;;;;;;;;
2021/09/10 14:05:34;;;;;;;;;;;;;;;;;;;;;
2021/09/10 14:08:33;;;;;;;5.10;3.10;;;;;;;27.63;36.11;98841.12;112353;1195;62826;-86
2021/09/10 14:11:29;;;;;;;;;;;;;;;;;;;;;
2021/09/10 14:14:28;;;;;;;8.40;3.60;;;;;;;27.60;36.34;98836.89;112199;1195;62554;-84
2021/09/10 14:17:05;;;;;;;4.30;3.60;;;;;;;27.60;36.33;98836.08;112678;1194;66285;-83
2021/09/10 14:20:05;;;;;;;;;;;;;;;;;;;;;
2021/09/10 14:26:55;;;;;;;6.20;3.20;;;;;;;27.50;36.42;98837.52;112335;1193;62674;-86
2021/09/10 14:29:40;;;;;;;8.60;3.70;;;;;;;27.46;36.41;98839.84;112487;1195;62841;-87
2021/09/10 14:32:33;;;;;;;6.90;3.00;;;;;;;27.41;36.37;98840.02;112358;1195;67623;-86
2021/09/10 14:35:32;;;;;;;4.00;3.00;;;;;;;27.34;36.35;98839.79;112383;1196;62821;-85
2021/09/10 14:39:10;;;;;;;;;;;;;;;;;;;;;
2021/09/10 14:42:02;;;;;;;3.50;3.00;;;;;;;27.19;36.41;98838.98;112734;1190;62695;-85
2021/09/10 14:45:11;;;;;;;7.60;3.60;;;;;;;27.14;36.63;98840.77;112699;1192;62572;-85
2021/09/10 14:48:05;;;;;;;7.00;3.10;;;;;;;27.11;36.66;98840.73;112558;1190;66491;-86
2021/09/10 14:51:13;;;;;;;7.40;3.60;;;;;;;27.06;36.88;98838.34;112626;1191;62635;-89
2021/09/10 15:01:40;;;;;;;;;;;;;;;;;;;;;
2021/09/10 15:05:05;;;;;;;;;;;;;;;;;;;;;
2021/09/10 15:07:59;;;;;;;4.60;3.10;;;;;;;26.76;36.71;98849.98;112525;1192;62639;-87
2021/09/10 15:11:31;;;;;;;8.10;4.00;;;;;;;26.66;36.79;98852.77;112425;1190;64207;-85
2021/09/10 15:14:47;;;;;;;7.90;3.40;;;;;;;26.58;36.99;98850.55;112555;1193;62572;-86
2021/09/10 15:17:56;;;;;;;6.70;5.60;;;;;;;26.51;37.01;98847.85;112491;1193;62600;-85
2021/09/10 15:20:39;;;;;;;11.00;6.70;;;;;;;26.45;37.05;98850.08;112632;1190;67470;-85
2021/09/10 15:23:37;;;;;;;9.00;4.30;;;;;;;26.39;37.24;98849.15;112526;1190;62716;-86
2021/09/10 15:26:50;;;;;;;6.40;3.70;;;;;;;26.36;37.36;98851.16;112651;1190;62639;-85
2021/09/10 15:30:19;;;;;;;;;;;;;;;;;;;;;
2021/09/10 15:33:19;;;;;;;5.00;3.40;;;;;;;26.30;37.33;98845.52;113028;1192;62663;-85
2021/09/10 15:36:35;;;;;;;6.60;3.30;;;;;;;26.25;37.29;98844.27;112661;1190;67705;-85
2021/09/10 15:39:10;;;;;;;6.30;3.40;;;;;;;26.20;37.49;98843.30;112974;1190;62745;-83
2021/09/10 15:42:13;;;;;;;20.80;8.10;;;;;;;26.19;37.66;98845.67;112985;1192;64558;-84
2021/09/10 15:45:39;;;;;;;10.10;5.10;;;;;;;26.21;37.71;98846.84;112761;1192;62574;-84
2021/09/10 15:48:47;;;;;;;;;;;;;;;;;;;;;
2021/09/10 15:52:22;;;;;;;;;;;;;;;;;;;;;
2021/09/10 15:55:17;;;;;;;;;;;;;;;;;;;;;
2021/09/10 15:58:37;;;;;;;;;;;;;;;;;;;;;
2021/09/10 16:02:14;;;;;;;15.10;10.80;;;;;;;27.03;37.94;98835.23;112659;1190;62639;-88
2021/09/10 16:06:02;;;;;;;11.40;7.80;;;;;;;27.48;37.97;98832.14;112742;1190;62643;-85
2021/09/10 16:09:05;;;;;;;10.50;6.50;;;;;;;27.45;37.84;98832.27;112807;1190;66386;-86
2021/09/10 16:12:01;;;;;;;;;;;;;;;;;;;;;
2021/09/10 16:15:12;;;;;;;5.50;4.10;;;;;;;26.78;37.93;98842.77;112699;1190;62697;-85
2021/09/10 16:18:20;;;;;;;8.10;3.90;;;;;;;26.50;38.11;98844.68;112673;1190;62714;-85
2021/09/10 16:21:56;;;;;;;5.50;3.60;;;;;;;26.25;38.21;98845.69;112490;1190;62697;-88
2021/09/10 16:24:38;;;;;;;;;;;;;;;;;;;;;
2021/09/10 16:27:53;;;;;;;;;;;;;;;;;;;;;
2021/09/10 16:30:48;;;;;;;;;;;;;;;25.63;38.54;98851.93;112332;1195;63855;-85
2021/09/10 16:33:55;;;;;;;6.60;4.60;;;;;;;25.44;38.66;98855.52;112211;1195;62595;-85
2021/09/10 16:36:38;;;;;;;11.80;6.90;;;;;;;25.28;38.78;98857.88;112319;1195;62620;-85
2021/09/10 16:39:45;;;;;;;9.00;5.40;;;;;;;25.15;38.88;98857.95;112195;1195;75317;-84
2021/09/10 16:42:52;;;;;;;9.00;4.60;;;;;;;25.00;38.99;98854.39;112016;1195;62716;-87
2021/09/10 16:46:05;;;;;;;;;;;;;;;;;;;;;
2021/09/10 16:49:20;;;;;;;;;;;;;;;;;;;;;
2021/09/10 16:52:24;;;;;;;11.70;7.20;;;;;;;24.54;39.32;98864.47;112153;1196;62830;-85
2021/09/10 16:55:31;;;;;;;119.50;68.30;;;;;;;24.39;39.41;98864.75;112272;1195;69397;-84